createdAt,value
2018-02-21T00:01:07.111Z,85.84
2018-02-21T00:03:33.557Z,85.26
2018-02-21T00:05:59.900Z,85.30
2018-02-21T00:08:36.929Z,84.95
2018-02-21T00:11:03.278Z,84.73
2018-02-21T00:13:29.670Z,85.50
2018-02-21T00:15:56.042Z,84.59
2018-02-21T00:18:25.813Z,84.95
2018-02-21T00:20:52.141Z,85.56
2018-02-21T00:23:18.529Z,85.23
2018-02-21T00:25:44.818Z,85.01
2018-02-21T00:28:11.255Z,84.08
2018-02-21T00:30:37.610Z,85.03
2018-02-21T00:33:04.015Z,84.53
2018-02-21T00:35:30.351Z,84.22
2018-02-21T00:37:58.781Z,84.24
2018-02-21T00:40:25.122Z,83.54
2018-02-21T00:42:51.445Z,83.96
2018-02-21T00:45:17.813Z,85.04
2018-02-21T00:47:44.263Z,84.90
2018-02-21T00:50:10.737Z,84.45
2018-02-21T00:52:37.085Z,83.97
2018-02-21T00:55:03.469Z,84.00
2018-02-21T00:57:31.813Z,84.46
2018-02-21T00:59:58.190Z,85.41
2018-02-21T01:02:24.526Z,85.58
2018-02-21T01:04:50.849Z,85.74
2018-02-21T01:07:18.339Z,85.60
2018-02-21T01:09:44.719Z,87.32
2018-02-21T01:12:11.175Z,86.88
2018-02-21T01:14:37.519Z,87.31
2018-02-21T01:17:03.843Z,87.95
2018-02-21T01:19:30.185Z,86.82
2018-02-21T01:21:56.594Z,87.52
2018-02-21T01:24:22.918Z,87.59
2018-02-21T01:26:49.301Z,88.99
2018-02-21T01:29:15.805Z,88.82
2018-02-21T01:31:42.148Z,88.94
2018-02-21T01:34:08.471Z,89.19
2018-02-21T01:36:34.792Z,90.06
2018-02-21T01:39:01.260Z,91.05
2018-02-21T01:41:27.704Z,92.03
2018-02-21T01:43:54.053Z,92.33
2018-02-21T01:46:20.407Z,92.37
2018-02-21T01:48:54.258Z,91.39
2018-02-21T01:51:20.583Z,91.86
2018-02-21T01:53:46.985Z,91.52
2018-02-21T01:56:14.239Z,91.86
2018-02-21T01:58:42.605Z,92.18
2018-02-21T02:01:08.947Z,92.61
2018-02-21T02:03:35.389Z,92.49
2018-02-21T02:06:01.793Z,92.76
2018-02-21T02:08:28.245Z,93.41
2018-02-21T02:10:54.644Z,94.12
2018-02-21T02:13:20.980Z,93.82
2018-02-21T02:15:47.373Z,93.92
2018-02-21T02:18:14.895Z,93.81
2018-02-21T02:20:41.216Z,93.04
2018-02-21T02:23:07.548Z,93.49
2018-02-21T02:25:33.914Z,93.27
2018-02-21T02:28:03.602Z,94.08
2018-02-21T02:30:29.923Z,93.52
2018-02-21T02:32:56.298Z,93.72
2018-02-21T02:35:22.603Z,93.39
2018-02-21T02:37:48.998Z,92.98
2018-02-21T02:40:15.441Z,93.67
2018-02-21T02:42:41.797Z,92.96
2018-02-21T02:45:08.126Z,92.86
2018-02-21T02:47:38.834Z,91.87
2018-02-21T02:50:06.062Z,93.25
2018-02-21T02:52:32.363Z,92.47
2018-02-21T02:54:58.761Z,90.30
2018-02-21T02:57:25.195Z,91.98
2018-02-21T02:59:51.529Z,91.11
2018-02-21T03:02:17.882Z,91.63
2018-02-21T03:04:44.241Z,92.18
2018-02-21T03:07:10.590Z,91.69
2018-02-21T03:09:37.015Z,92.27
2018-02-21T03:12:03.324Z,93.92
2018-02-21T03:14:29.710Z,94.30
2018-02-21T03:16:56.044Z,93.62
2018-02-21T03:19:23.511Z,92.89
2018-02-21T03:21:49.842Z,92.66
2018-02-21T03:24:16.196Z,93.62
2018-02-21T03:26:42.541Z,93.59
2018-02-21T03:29:10.977Z,92.63
2018-02-21T03:31:37.312Z,93.50
2018-02-21T03:34:03.697Z,92.83
2018-02-21T03:36:30.083Z,93.36
2018-02-21T03:38:59.670Z,93.85
2018-02-21T03:41:26.040Z,93.35
2018-02-21T03:43:52.371Z,92.39
2018-02-21T03:46:18.795Z,93.35
2018-02-21T03:48:50.455Z,93.15
2018-02-21T03:51:16.751Z,92.08
2018-02-21T03:53:43.090Z,93.50
2018-02-21T03:56:09.529Z,91.96
2018-02-21T03:58:39.107Z,92.71
2018-02-21T04:01:05.453Z,93.89
2018-02-21T04:03:31.830Z,91.68
2018-02-21T04:05:58.161Z,89.42
2018-02-21T04:08:25.589Z,91.65
2018-02-21T04:10:51.976Z,90.55
2018-02-21T04:13:18.387Z,88.79
2018-02-21T04:15:44.713Z,89.28
2018-02-21T04:18:15.218Z,90.84
2018-02-21T04:20:41.524Z,88.42
2018-02-21T04:23:07.863Z,87.76
2018-02-21T04:25:34.233Z,88.13
2018-02-21T04:28:01.637Z,88.09
2018-02-21T04:30:27.982Z,89.19
2018-02-21T04:32:54.343Z,90.51
2018-02-21T04:35:20.693Z,90.19
2018-02-21T04:37:47.065Z,89.88
2018-02-21T04:40:13.468Z,88.74
2018-02-21T04:42:39.776Z,84.71
2018-02-21T04:45:06.113Z,88.54
2018-02-21T04:47:32.541Z,86.16
2018-02-21T04:49:58.861Z,89.44
2018-02-21T04:52:25.438Z,88.55
2018-02-21T04:58:08.614Z,89.59
2018-02-21T05:00:35.019Z,85.85
2018-02-21T05:03:01.320Z,88.11
2018-02-21T05:05:27.865Z,89.53
2018-02-21T05:08:01.807Z,91.75
2018-02-21T05:10:28.186Z,93.15
2018-02-21T05:12:54.514Z,93.51
2018-02-21T05:15:20.924Z,93.74
2018-02-21T05:17:47.373Z,93.93
2018-02-21T05:20:13.714Z,93.00
2018-02-21T05:22:40.258Z,87.71
2018-02-21T05:25:06.585Z,90.15
2018-02-21T05:27:38.678Z,91.62
2018-02-21T05:30:05.094Z,89.22
2018-02-21T05:32:31.457Z,91.04
2018-02-21T05:34:57.857Z,88.30
2018-02-21T05:37:30.296Z,90.70
2018-02-21T05:39:56.917Z,87.23
2018-02-21T05:42:23.332Z,88.10
2018-02-21T05:44:49.752Z,89.85
2018-02-21T05:47:16.148Z,89.46
2018-02-21T05:49:42.459Z,90.46
2018-02-21T05:52:08.876Z,91.77
2018-02-21T05:54:35.320Z,91.92
2018-02-21T05:57:01.689Z,92.61
2018-02-21T05:59:28.180Z,92.75
2018-02-21T06:01:54.694Z,93.01
2018-02-21T06:04:21.126Z,92.68
2018-02-21T06:06:47.536Z,91.40
2018-02-21T06:09:17.167Z,91.40
2018-02-21T06:11:43.505Z,91.26
2018-02-21T06:14:10.226Z,91.21
2018-02-21T06:16:36.673Z,90.40
2018-02-21T06:19:03.058Z,90.51
2018-02-21T06:21:29.383Z,90.74
2018-02-21T06:23:55.758Z,88.68
2018-02-21T06:26:22.219Z,90.96
2018-02-21T06:28:48.657Z,90.28
2018-02-21T06:31:15.089Z,89.99
2018-02-21T06:33:41.492Z,88.38
2018-02-21T06:36:07.846Z,89.33
2018-02-21T06:38:34.243Z,82.55
2018-02-21T06:41:00.620Z,82.30
2018-02-21T06:43:27.018Z,81.53
2018-02-21T06:45:53.383Z,81.98
2018-02-21T06:48:21.033Z,81.92
2018-02-21T06:50:47.463Z,82.60
2018-02-21T06:53:14.014Z,83.59
2018-02-21T06:55:40.366Z,83.84
2018-02-21T06:58:17.540Z,81.45
2018-02-21T07:00:43.945Z,81.79
2018-02-21T07:03:10.381Z,81.62
2018-02-21T07:05:36.854Z,81.28
2018-02-21T07:08:12.934Z,81.47
2018-02-21T07:10:39.306Z,82.14
2018-02-21T07:13:05.648Z,81.03
2018-02-21T07:15:32.119Z,80.79
2018-02-21T07:18:05.333Z,80.50
2018-02-21T07:20:31.718Z,80.90
2018-02-21T07:22:58.062Z,79.26
2018-02-21T07:25:24.473Z,79.76
2018-02-21T07:27:50.855Z,79.78
2018-02-21T07:30:17.201Z,81.30
2018-02-21T07:32:43.571Z,79.66
2018-02-21T07:35:09.920Z,78.87
2018-02-21T07:37:36.244Z,79.22
2018-02-21T07:40:02.663Z,81.55
2018-02-21T07:42:29.055Z,79.74
2018-02-21T07:44:55.410Z,81.81
2018-02-21T07:47:21.812Z,81.74
2018-02-21T07:49:48.574Z,80.84
2018-02-21T07:52:14.915Z,81.39
2018-02-21T07:54:41.305Z,82.53
2018-02-21T07:57:07.613Z,79.71
2018-02-21T07:59:41.206Z,80.76
2018-02-21T08:02:07.538Z,80.74
2018-02-21T08:04:33.964Z,80.36
2018-02-21T08:07:00.398Z,76.21
2018-02-21T08:09:26.868Z,75.81
2018-02-21T08:11:53.241Z,75.99
2018-02-21T08:14:19.665Z,75.85
2018-02-21T08:16:46.039Z,77.95
2018-02-21T08:19:12.425Z,73.68
2018-02-21T08:21:38.824Z,73.60
2018-02-21T08:24:05.225Z,73.91
2018-02-21T08:26:31.610Z,76.23
2018-02-21T08:29:00.118Z,73.69
2018-02-21T08:31:26.468Z,72.06
2018-02-21T08:33:52.814Z,73.21
2018-02-21T08:36:19.289Z,74.44
2018-02-21T08:38:46.729Z,73.34
2018-02-21T08:41:13.078Z,73.31
2018-02-21T08:43:39.468Z,76.40
2018-02-21T08:46:05.806Z,72.67
2018-02-21T08:48:36.875Z,75.32
2018-02-21T08:51:03.327Z,73.19
2018-02-21T08:53:29.853Z,74.64
2018-02-21T08:55:56.270Z,74.54
2018-02-21T08:58:26.299Z,73.30
2018-02-21T09:00:52.778Z,72.96
2018-02-21T09:03:19.145Z,73.66
2018-02-21T09:05:46.077Z,74.78
2018-02-21T09:08:18.922Z,73.88
2018-02-21T09:10:45.254Z,73.48
2018-02-21T09:13:11.819Z,73.38
2018-02-21T09:15:38.196Z,74.64
2018-02-21T09:18:12.171Z,73.67
2018-02-21T09:20:38.603Z,72.84
2018-02-21T09:23:05.036Z,70.55
2018-02-21T09:25:32.374Z,72.57
2018-02-21T09:27:59.008Z,70.85
2018-02-21T09:30:25.395Z,72.02
2018-02-21T09:32:51.891Z,70.62
2018-02-21T09:35:18.345Z,71.71
2018-02-21T09:37:52.087Z,73.36
2018-02-21T09:40:18.588Z,71.75
2018-02-21T09:42:45.147Z,72.01
2018-02-21T09:45:11.662Z,71.28
2018-02-21T09:47:38.046Z,71.23
2018-02-21T09:50:05.132Z,70.54
2018-02-21T09:52:31.519Z,71.40
2018-02-21T09:54:57.862Z,70.35
2018-02-21T09:57:24.164Z,70.63
2018-02-21T09:59:50.604Z,70.76
2018-02-21T10:02:16.941Z,69.81
2018-02-21T10:04:43.266Z,70.24
2018-02-21T10:07:09.640Z,70.90
2018-02-21T10:09:36.130Z,69.22
2018-02-21T10:12:02.509Z,68.64
2018-02-21T10:14:28.979Z,68.29
2018-02-21T10:16:55.340Z,70.67
2018-02-21T10:19:28.703Z,70.34
2018-02-21T10:21:55.084Z,70.05
2018-02-21T10:24:21.501Z,68.48
2018-02-21T10:26:47.892Z,68.81
2018-02-21T10:29:18.534Z,68.63
2018-02-21T10:31:45.008Z,68.00
2018-02-21T10:34:11.415Z,69.42
2018-02-21T10:36:37.901Z,70.66
2018-02-21T10:39:04.600Z,68.78
2018-02-21T10:41:31.079Z,70.34
2018-02-21T10:43:57.539Z,68.60
2018-02-21T10:46:23.929Z,68.15
2018-02-21T10:48:50.324Z,68.63
2018-02-21T10:51:16.755Z,68.82
2018-02-21T10:53:43.114Z,71.08
2018-02-21T10:56:09.616Z,68.17
2018-02-21T10:58:36.064Z,70.11
2018-02-21T11:01:08.444Z,70.42
2018-02-21T11:03:34.856Z,69.36
2018-02-21T11:06:01.238Z,71.10
2018-02-21T11:08:27.643Z,69.18
2018-02-21T11:10:54.185Z,72.59
2018-02-21T11:13:20.565Z,71.18
2018-02-21T11:15:46.921Z,71.59
2018-02-21T11:18:13.359Z,70.41
2018-02-21T11:20:39.727Z,70.24
2018-02-21T11:23:06.157Z,70.35
2018-02-21T11:25:32.606Z,70.19
2018-02-21T11:27:59.022Z,69.83
2018-02-21T11:30:25.377Z,69.87
2018-02-21T11:32:51.746Z,69.12
2018-02-21T11:35:18.193Z,70.37
2018-02-21T11:37:45.660Z,71.31
2018-02-21T11:40:12.316Z,71.70
2018-02-21T11:42:38.892Z,70.43
2018-02-21T11:45:05.587Z,70.46
2018-02-21T11:47:31.945Z,71.53
2018-02-21T11:50:01.654Z,69.62
2018-02-21T11:52:28.112Z,70.04
2018-02-21T11:54:55.590Z,71.36
2018-02-21T11:57:22.165Z,71.43
2018-02-21T11:59:50.510Z,71.37
2018-02-21T12:02:17.622Z,73.21
2018-02-21T12:04:45.127Z,70.62
2018-02-21T12:07:11.646Z,70.37
2018-02-21T12:09:39.157Z,69.02
2018-02-21T12:12:05.696Z,70.61
2018-02-21T12:14:32.434Z,71.01
2018-02-21T12:16:58.802Z,73.23
2018-02-21T12:19:28.760Z,72.04
2018-02-21T12:21:55.358Z,73.10
2018-02-21T12:24:21.791Z,74.40
2018-02-21T12:26:48.397Z,73.22
2018-02-21T12:29:22.970Z,74.21
2018-02-21T12:31:53.585Z,75.49
2018-02-21T12:34:19.936Z,75.50
2018-02-21T12:36:46.472Z,76.68
2018-02-21T12:39:19.156Z,75.49
2018-02-21T12:41:45.632Z,77.77
2018-02-21T12:44:12.190Z,78.60
2018-02-21T12:46:38.551Z,74.81
2018-02-21T12:49:04.965Z,74.79
2018-02-21T12:51:31.312Z,76.15
2018-02-21T12:53:57.710Z,75.34
2018-02-21T12:56:24.176Z,75.35
2018-02-21T12:58:50.660Z,76.42
2018-02-21T13:01:17.090Z,77.47
2018-02-21T13:03:43.493Z,77.50
2018-02-21T13:06:10.127Z,78.77
2018-02-21T13:08:36.601Z,77.55
2018-02-21T13:11:03.040Z,78.21
2018-02-21T13:13:29.818Z,78.60
2018-02-21T13:15:56.333Z,77.16
2018-02-21T13:18:22.870Z,77.27
2018-02-21T13:20:49.298Z,77.17
2018-02-21T13:23:15.747Z,77.31
2018-02-21T13:25:42.134Z,77.84
2018-02-21T13:28:09.689Z,76.64
2018-02-21T13:30:36.129Z,79.44
2018-02-21T13:33:02.529Z,78.25
2018-02-21T13:35:28.911Z,79.21
2018-02-21T13:38:01.218Z,78.88
2018-02-21T13:40:27.850Z,79.96
2018-02-21T13:42:54.386Z,79.48
2018-02-21T13:45:20.827Z,78.47
2018-02-21T13:47:48.350Z,79.46
2018-02-21T13:50:14.714Z,78.73
2018-02-21T13:52:41.150Z,81.40
2018-02-21T13:55:07.556Z,80.40
2018-02-21T13:57:33.910Z,81.13
2018-02-21T14:00:06.880Z,79.37
2018-02-21T14:02:33.269Z,79.54
2018-02-21T14:04:59.762Z,78.58
2018-02-21T14:07:26.171Z,80.93
2018-02-21T14:10:03.056Z,80.20
2018-02-21T14:12:29.494Z,80.55
2018-02-21T14:14:55.895Z,82.04
2018-02-21T14:17:22.331Z,81.32
2018-02-21T14:19:56.978Z,82.29
2018-02-21T14:22:23.350Z,81.25
2018-02-21T14:24:49.816Z,80.60
2018-02-21T14:27:16.241Z,80.70
2018-02-21T14:29:42.679Z,81.52
2018-02-21T14:32:09.171Z,82.88
2018-02-21T14:34:35.714Z,81.81
2018-02-21T14:37:02.186Z,82.12
2018-02-21T14:39:28.566Z,81.58
2018-02-21T14:41:54.968Z,81.51
2018-02-21T14:44:21.402Z,82.68
2018-02-21T14:46:47.804Z,82.67
2018-02-21T14:49:14.432Z,83.18
2018-02-21T14:51:40.847Z,83.57
2018-02-21T14:54:07.312Z,83.27
2018-02-21T14:56:34.700Z,82.52
2018-02-21T14:59:01.072Z,83.52
2018-02-21T15:01:27.505Z,83.74
2018-02-21T15:03:53.941Z,82.99
2018-02-21T15:06:20.299Z,83.97
2018-02-21T15:08:59.386Z,83.33
2018-02-21T15:11:26.118Z,84.20
2018-02-21T15:13:53.129Z,84.21
2018-02-21T15:16:26.312Z,85.10
2018-02-21T15:18:56.777Z,83.50
2018-02-21T15:21:26.549Z,84.01
2018-02-21T15:23:53.580Z,83.97
2018-02-21T15:26:20.160Z,83.47
2018-02-21T15:28:50.585Z,83.44
2018-02-21T15:31:20.715Z,83.44
2018-02-21T15:33:50.404Z,84.45
2018-02-21T15:36:17.930Z,84.03
2018-02-21T15:38:48.004Z,84.15
2018-02-21T15:41:16.502Z,84.73
2018-02-21T15:43:43.656Z,84.59
2018-02-21T15:46:11.314Z,84.59
2018-02-21T15:48:46.060Z,84.23
2018-02-21T15:51:12.596Z,84.62
2018-02-21T15:53:39.173Z,84.32
2018-02-21T15:56:05.858Z,84.64
2018-02-21T15:58:39.880Z,84.58
2018-02-21T16:01:06.381Z,84.86
2018-02-21T16:03:32.948Z,85.20
2018-02-21T16:05:59.560Z,84.80
2018-02-21T16:08:33.612Z,84.83
2018-02-21T16:11:00.410Z,84.88
2018-02-21T16:13:32.009Z,85.01
2018-02-21T16:15:59.632Z,85.24
2018-02-21T16:18:25.981Z,85.38
2018-02-21T16:20:52.447Z,85.42
2018-02-21T16:23:19.062Z,85.14
2018-02-21T16:25:45.465Z,85.00
2018-02-21T16:28:11.941Z,85.02
2018-02-21T16:30:38.336Z,85.45
2018-02-21T16:33:04.701Z,85.47
2018-02-21T16:35:31.056Z,85.76
2018-02-21T16:37:57.624Z,85.01
2018-02-21T16:40:23.980Z,84.95
2018-02-21T16:42:50.348Z,85.03
2018-02-21T16:45:18.043Z,84.68
2018-02-21T16:47:44.507Z,85.06
2018-02-21T16:50:10.898Z,84.88
2018-02-21T16:52:37.466Z,84.84
2018-02-21T16:55:03.983Z,84.62
2018-02-21T16:57:30.471Z,84.70
2018-02-21T17:00:00.241Z,85.02
2018-02-21T17:02:26.609Z,85.00
2018-02-21T17:04:53.033Z,85.04
2018-02-21T17:07:19.459Z,84.68
2018-02-21T17:10:01.313Z,85.08
2018-02-21T17:12:27.870Z,85.12
2018-02-21T17:14:54.352Z,85.13
2018-02-21T17:17:20.743Z,85.57
2018-02-21T17:19:47.360Z,85.09
2018-02-21T17:22:13.772Z,85.09
2018-02-21T17:24:40.197Z,84.96
2018-02-21T17:27:06.642Z,85.06
2018-02-21T17:29:33.086Z,84.90
2018-02-21T17:31:59.609Z,85.94
2018-02-21T17:34:26.172Z,85.28
2018-02-21T17:36:52.728Z,85.67
2018-02-21T17:39:23.917Z,85.10
2018-02-21T17:41:50.367Z,84.81
2018-02-21T17:44:16.809Z,84.73
2018-02-21T17:46:43.398Z,84.79
2018-02-21T17:49:10.047Z,85.94
2018-02-21T17:51:36.698Z,84.91
2018-02-21T17:54:03.139Z,83.90
2018-02-21T17:56:29.722Z,84.13
2018-02-21T17:58:56.314Z,84.19
2018-02-21T18:01:23.078Z,84.48
2018-02-21T18:03:49.799Z,84.54
2018-02-21T18:06:16.680Z,84.05
2018-02-21T18:08:43.330Z,83.68
2018-02-21T18:11:09.891Z,83.94
2018-02-21T18:13:36.283Z,83.52
2018-02-21T18:16:03.498Z,83.59
2018-02-21T18:18:31.471Z,83.54
2018-02-21T18:20:58.104Z,83.37
2018-02-21T18:23:24.873Z,83.26
2018-02-21T18:25:52.702Z,83.19
2018-02-21T18:28:20.697Z,83.29
2018-02-21T18:30:47.415Z,83.55
2018-02-21T18:33:14.180Z,84.02
2018-02-21T18:35:40.790Z,83.78
2018-02-21T18:38:10.478Z,84.19
2018-02-21T18:40:37.078Z,83.73
2018-02-21T18:43:03.703Z,83.95
2018-02-21T18:45:30.743Z,84.18
2018-02-21T18:47:57.687Z,84.32
2018-02-21T18:50:24.220Z,84.69
2018-02-21T18:52:50.828Z,84.26
2018-02-21T18:55:17.554Z,84.46
2018-02-21T18:57:44.042Z,84.53
2018-02-21T19:00:13.872Z,84.38
2018-02-21T19:02:40.504Z,84.73
2018-02-21T19:05:06.998Z,84.00
2018-02-21T19:07:33.517Z,84.67
2018-02-21T19:10:01.196Z,83.78
2018-02-21T19:12:27.570Z,84.10
2018-02-21T19:14:54.005Z,84.26
2018-02-21T19:17:20.658Z,84.59
2018-02-21T19:19:47.769Z,84.24
2018-02-21T19:22:14.211Z,84.86
2018-02-21T19:24:40.631Z,84.31
2018-02-21T19:27:07.138Z,84.42
2018-02-21T19:29:33.668Z,84.34
2018-02-21T19:32:00.137Z,84.97
2018-02-21T19:34:26.654Z,84.67
2018-02-21T19:36:53.068Z,85.89
2018-02-21T19:39:19.606Z,85.39
2018-02-21T19:41:46.142Z,84.24
2018-02-21T19:44:12.565Z,85.11
2018-02-21T19:46:39.132Z,84.14
2018-02-21T19:49:09.378Z,84.14
2018-02-21T19:51:35.944Z,83.50
2018-02-21T19:54:02.889Z,83.46
2018-02-21T19:56:29.456Z,83.43
2018-02-21T19:59:04.084Z,83.34
2018-02-21T20:01:30.592Z,84.16
2018-02-21T20:03:57.048Z,83.14
2018-02-21T20:06:24.225Z,82.88
2018-02-21T20:08:51.163Z,83.35
2018-02-21T20:11:17.678Z,82.92
2018-02-21T20:13:44.192Z,82.58
2018-02-21T20:16:10.676Z,83.23
2018-02-21T20:18:46.282Z,82.85
2018-02-21T20:21:13.043Z,82.60
2018-02-21T20:23:39.540Z,82.95
2018-02-21T20:26:06.151Z,83.29
2018-02-21T20:28:32.731Z,83.43
2018-02-21T20:30:59.363Z,84.06
2018-02-21T20:33:26.016Z,83.77
2018-02-21T20:35:52.576Z,84.08
2018-02-21T20:38:30.297Z,84.05
2018-02-21T20:40:57.139Z,83.49
2018-02-21T20:43:23.638Z,83.24
2018-02-21T20:45:50.088Z,83.07
2018-02-21T20:48:18.779Z,83.26
2018-02-21T20:50:45.347Z,83.83
2018-02-21T20:53:11.940Z,82.87
2018-02-21T20:55:38.464Z,83.76
2018-02-21T20:58:11.006Z,82.97
2018-02-21T21:00:37.627Z,83.17
2018-02-21T21:03:04.055Z,84.57
2018-02-21T21:05:30.564Z,85.48
2018-02-21T21:07:57.003Z,83.19
2018-02-21T21:10:23.487Z,84.50
2018-02-21T21:12:49.937Z,84.00
2018-02-21T21:15:16.409Z,83.90
2018-02-21T21:17:43.249Z,84.18
2018-02-21T21:20:10.641Z,84.02
2018-02-21T21:22:37.139Z,83.64
2018-02-21T21:25:03.527Z,82.48
2018-02-21T21:27:30.163Z,82.33
2018-02-21T21:29:56.684Z,82.93
2018-02-21T21:32:23.096Z,82.34
2018-02-21T21:34:49.481Z,82.14
2018-02-21T21:37:15.917Z,82.32
2018-02-21T21:39:46.157Z,81.90
2018-02-21T21:42:12.561Z,82.48
2018-02-21T21:44:38.999Z,82.41
2018-02-21T21:47:05.441Z,82.26
2018-02-21T21:49:35.943Z,83.10
2018-02-21T21:52:02.368Z,82.99
2018-02-21T21:54:28.792Z,82.73
2018-02-21T21:56:55.330Z,82.71
2018-02-21T21:59:22.774Z,83.67
2018-02-21T22:01:49.191Z,83.21
2018-02-21T22:04:15.558Z,83.25
2018-02-21T22:06:42.321Z,83.78
2018-02-21T22:09:12.361Z,84.77
2018-02-21T22:11:38.701Z,83.96
2018-02-21T22:14:05.160Z,84.32
2018-02-21T22:16:31.518Z,85.12
2018-02-21T22:18:57.900Z,85.04
2018-02-21T22:21:24.294Z,85.05
2018-02-21T22:23:50.638Z,85.10
2018-02-21T22:26:17.039Z,83.95
2018-02-21T22:28:53.836Z,83.44
2018-02-21T22:31:20.242Z,83.04
2018-02-21T22:33:46.584Z,83.55
2018-02-21T22:36:13.003Z,84.17
2018-02-21T22:38:39.409Z,84.72
2018-02-21T22:41:05.779Z,85.51
2018-02-21T22:43:32.164Z,86.13
2018-02-21T22:45:58.548Z,87.73
2018-02-21T22:48:25.287Z,87.55
2018-02-21T22:50:51.815Z,88.57
2018-02-21T22:53:18.220Z,88.13
2018-02-21T22:55:44.586Z,89.23
2018-02-21T22:58:11.106Z,88.45
2018-02-21T23:00:37.471Z,84.28
2018-02-21T23:03:03.869Z,84.46
2018-02-21T23:05:30.318Z,86.23
2018-02-21T23:07:56.775Z,86.59
2018-02-21T23:10:26.832Z,85.10
2018-02-21T23:12:53.243Z,86.26
2018-02-21T23:15:19.664Z,86.32
2018-02-21T23:17:46.050Z,85.19
2018-02-21T23:20:14.696Z,84.77
2018-02-21T23:22:41.081Z,83.52
2018-02-21T23:25:07.447Z,83.66
2018-02-21T23:27:33.976Z,83.64
2018-02-21T23:30:00.500Z,84.31
2018-02-21T23:32:26.942Z,83.66
2018-02-21T23:34:53.324Z,83.73
2018-02-21T23:37:19.777Z,82.61
2018-02-21T23:39:49.522Z,82.86
2018-02-21T23:42:15.925Z,84.12
2018-02-21T23:44:42.288Z,83.26
2018-02-21T23:47:08.712Z,82.46
2018-02-21T23:49:38.316Z,82.93
2018-02-21T23:52:04.683Z,83.30
2018-02-21T23:54:31.101Z,82.85
2018-02-21T23:56:57.711Z,83.16
2018-02-21T23:59:24.092Z,83.35
